createdAt,value
2017-05-01T00:01:00.979Z,941.04
2017-05-01T00:02:13.288Z,941.04
2017-05-01T00:03:26.091Z,941.06
2017-05-01T00:04:38.931Z,941.09
2017-05-01T00:05:51.732Z,941.1
2017-05-01T00:07:04.536Z,941.08
2017-05-01T00:08:16.643Z,941.1
2017-05-01T00:09:29.440Z,941.12
2017-05-01T00:10:42.262Z,941.12
2017-05-01T00:11:55.116Z,941.15
2017-05-01T00:14:34.297Z,941.19
2017-05-01T00:15:47.093Z,941.18
2017-05-01T00:16:59.892Z,941.21
2017-05-01T00:18:12.679Z,941.18
2017-05-01T00:19:25.460Z,941.2
2017-05-01T00:20:38.443Z,941.2
2017-05-01T00:21:51.235Z,941.19
2017-05-01T00:23:04.018Z,941.25
2017-05-01T00:24:16.802Z,941.2
2017-05-01T00:25:29.109Z,941.25
2017-05-01T00:26:41.894Z,941.25
2017-05-01T00:27:54.677Z,941.28
2017-05-01T00:29:07.475Z,941.26
2017-05-01T00:30:20.260Z,941.32
2017-05-01T00:31:32.561Z,941.3
2017-05-01T00:32:45.350Z,941.33
2017-05-01T00:33:58.135Z,941.31
2017-05-01T00:35:10.688Z,941.24
2017-05-01T00:36:23.480Z,941.24
2017-05-01T00:37:36.261Z,941.19
2017-05-01T00:38:49.047Z,941.21
2017-05-01T00:40:01.838Z,941.18
2017-05-01T00:41:14.657Z,941.18
2017-05-01T00:42:27.445Z,941.18
2017-05-01T00:43:40.227Z,941.17
2017-05-01T00:44:53.015Z,941.19
2017-05-01T00:46:06.105Z,941.22
2017-05-01T00:47:18.406Z,941.17
2017-05-01T00:48:31.185Z,941.13
2017-05-01T00:49:43.968Z,941.14
2017-05-01T00:50:56.754Z,941.12
2017-05-01T00:52:09.536Z,941.19
2017-05-01T00:53:21.839Z,941.23
2017-05-01T00:54:34.628Z,941.2
2017-05-01T00:55:47.412Z,941.23
2017-05-01T00:57:00.196Z,941.25
2017-05-01T00:58:12.981Z,941.25
2017-05-01T00:59:25.288Z,941.22
2017-05-01T01:00:38.080Z,941.22
2017-05-01T01:01:51.123Z,941.24
2017-05-01T01:03:03.913Z,941.21
2017-05-01T01:04:16.698Z,941.24
2017-05-01T01:05:29.499Z,941.21
2017-05-01T01:06:42.291Z,941.23
2017-05-01T01:07:55.076Z,941.21
2017-05-01T01:09:07.395Z,941.21
2017-05-01T01:10:20.187Z,941.17
2017-05-01T01:11:32.972Z,941.18
2017-05-01T01:12:46.010Z,941.16
2017-05-01T01:13:58.807Z,941.12
2017-05-01T01:15:11.602Z,941.17
2017-05-01T01:16:24.385Z,941.17
2017-05-01T01:17:37.179Z,941.22
2017-05-01T01:18:49.981Z,941.23
2017-05-01T01:20:02.774Z,941.24
2017-05-01T01:21:15.578Z,941.24
2017-05-01T01:22:28.386Z,941.25
2017-05-01T01:23:41.169Z,941.25
2017-05-01T01:24:53.964Z,941.25
2017-05-01T01:26:06.268Z,941.3
2017-05-01T01:27:19.056Z,941.26
2017-05-01T01:28:31.850Z,941.29
2017-05-01T01:29:44.889Z,941.27
2017-05-01T01:30:57.681Z,941.27
2017-05-01T01:32:10.480Z,941.3
2017-05-01T01:33:23.276Z,941.28
2017-05-01T01:34:35.841Z,941.25
2017-05-01T01:35:51.676Z,941.28
2017-05-01T01:37:04.469Z,941.27
2017-05-01T01:38:17.272Z,941.26
2017-05-01T01:39:29.596Z,941.3
2017-05-01T01:40:42.390Z,941.27
2017-05-01T01:41:55.192Z,941.23
2017-05-01T01:43:07.990Z,941.26
2017-05-01T01:44:20.789Z,941.25
2017-05-01T01:45:33.579Z,941.28
2017-05-01T01:46:46.374Z,941.31
2017-05-01T01:47:59.171Z,941.34
2017-05-01T01:49:11.009Z,941.31
2017-05-01T01:50:23.801Z,941.28
2017-05-01T01:51:36.850Z,941.29
2017-05-01T01:52:49.638Z,941.28
2017-05-01T01:54:02.434Z,941.29
2017-05-01T01:55:14.751Z,941.29
2017-05-01T01:56:27.798Z,941.31
2017-05-01T01:57:40.607Z,941.31
2017-05-01T01:58:53.418Z,941.34
2017-05-01T02:00:07.054Z,941.35
2017-05-01T02:01:19.901Z,941.34
2017-05-01T02:02:32.956Z,941.3
2017-05-01T02:03:45.771Z,941.34
2017-05-01T02:04:58.572Z,941.34
2017-05-01T02:06:11.387Z,941.3
2017-05-01T02:07:24.209Z,941.32
2017-05-01T02:08:36.572Z,941.31
2017-05-01T02:09:49.388Z,941.31
2017-05-01T02:11:02.223Z,941.32
2017-05-01T02:12:15.040Z,941.37
2017-05-01T02:13:28.119Z,941.35
2017-05-01T02:14:40.962Z,941.35
2017-05-01T02:15:53.802Z,941.34
2017-05-01T02:17:06.632Z,941.29
2017-05-01T02:18:19.690Z,941.29
2017-05-01T02:19:32.500Z,941.27
2017-05-01T02:20:45.340Z,941.26
2017-05-01T02:21:58.139Z,941.29
2017-05-01T02:23:09.974Z,941.26
2017-05-01T02:24:22.797Z,941.28
2017-05-01T02:25:35.619Z,941.3
2017-05-01T02:26:48.447Z,941.29
2017-05-01T02:28:01.248Z,941.28
2017-05-01T02:29:14.052Z,941.29
2017-05-01T02:30:26.855Z,941.25
2017-05-01T02:31:39.667Z,941.27
2017-05-01T02:32:52.459Z,941.28
2017-05-01T02:34:05.259Z,941.25
2017-05-01T02:35:18.052Z,941.27
2017-05-01T02:36:30.847Z,941.3
2017-05-01T02:37:43.641Z,941.28
2017-05-01T02:38:56.434Z,941.28
2017-05-01T02:40:08.758Z,941.31
2017-05-01T02:41:21.556Z,941.29
2017-05-01T02:42:34.349Z,941.28
2017-05-01T02:43:47.143Z,941.29
2017-05-01T02:44:59.951Z,941.3
2017-05-01T02:46:12.517Z,941.29
2017-05-01T02:47:24.832Z,941.25
2017-05-01T02:48:37.640Z,941.24
2017-05-01T02:49:50.442Z,941.29
2017-05-01T02:51:03.265Z,941.25
2017-05-01T02:52:16.058Z,941.25
2017-05-01T02:53:28.863Z,941.25
2017-05-01T02:54:41.673Z,941.24
2017-05-01T02:55:54.471Z,941.28
2017-05-01T02:57:07.273Z,941.19
2017-05-01T02:58:19.596Z,941.2
2017-05-01T02:59:31.910Z,941.21
2017-05-01T03:00:44.714Z,941.22
2017-05-01T03:01:57.528Z,941.23
2017-05-01T03:03:09.843Z,941.22
2017-05-01T03:04:22.642Z,941.24
2017-05-01T03:05:35.428Z,941.23
2017-05-01T03:06:47.761Z,941.17
2017-05-01T03:08:00.570Z,941.14
2017-05-01T03:09:13.376Z,941.17
2017-05-01T03:10:26.188Z,941.16
2017-05-01T03:11:38.999Z,941.14
2017-05-01T03:12:52.049Z,941.11
2017-05-01T03:14:04.865Z,941.1
2017-05-01T03:15:17.719Z,941.12
2017-05-01T03:16:30.523Z,941.05
2017-05-01T03:17:43.337Z,941.13
2017-05-01T03:18:56.460Z,941.15
2017-05-01T03:20:08.792Z,941.14
2017-05-01T03:21:21.130Z,941.16
2017-05-01T03:22:33.932Z,941.19
2017-05-01T03:23:46.258Z,941.16
2017-05-01T03:24:59.096Z,941.13
2017-05-01T03:26:11.960Z,941.08
2017-05-01T03:27:24.307Z,941.08
2017-05-01T03:28:36.625Z,941.06
2017-05-01T03:29:49.203Z,941.11
2017-05-01T03:31:02.021Z,941.12
2017-05-01T03:32:14.834Z,941.13
2017-05-01T03:33:27.635Z,941.13
2017-05-01T03:34:40.459Z,941.12
2017-05-01T03:35:53.274Z,941.08
2017-05-01T03:37:06.078Z,941.13
2017-05-01T03:38:18.911Z,941.1
2017-05-01T03:39:31.752Z,941.09
2017-05-01T03:40:44.560Z,941.05
2017-05-01T03:41:57.386Z,941.04
2017-05-01T03:43:10.217Z,941.05
2017-05-01T03:44:23.020Z,941.04
2017-05-01T03:45:36.115Z,941.01
2017-05-01T03:46:48.430Z,941.01
2017-05-01T03:48:01.229Z,940.98
2017-05-01T03:49:14.033Z,940.95
2017-05-01T03:50:26.841Z,941
2017-05-01T03:51:39.636Z,940.98
2017-05-01T03:52:51.949Z,940.97
2017-05-01T03:54:04.751Z,940.94
2017-05-01T03:55:17.550Z,940.94
2017-05-01T03:56:29.634Z,940.95
2017-05-01T03:57:42.445Z,940.91
2017-05-01T03:58:55.271Z,940.94
2017-05-01T04:00:07.599Z,940.94
2017-05-01T04:01:20.398Z,940.91
2017-05-01T04:02:47.270Z,940.87
2017-05-01T04:04:00.068Z,940.89
2017-05-01T04:05:12.394Z,940.88
2017-05-01T04:06:25.187Z,940.88
2017-05-01T04:07:38.283Z,940.86
2017-05-01T04:08:50.599Z,940.84
2017-05-01T04:10:03.390Z,940.86
2017-05-01T04:11:15.698Z,940.85
2017-05-01T04:12:28.503Z,940.83
2017-05-01T04:13:40.819Z,940.84
2017-05-01T04:14:53.648Z,940.86
2017-05-01T04:16:06.454Z,940.86
2017-05-01T04:17:19.249Z,940.82
2017-05-01T04:18:32.293Z,940.85
2017-05-01T04:19:45.093Z,940.86
2017-05-01T04:20:57.897Z,940.86
2017-05-01T04:22:10.699Z,940.85
2017-05-01T04:23:23.791Z,940.79
2017-05-01T04:24:36.589Z,940.79
2017-05-01T04:25:49.376Z,940.79
2017-05-01T04:27:02.168Z,940.78
2017-05-01T04:28:14.475Z,940.8
2017-05-01T04:29:27.519Z,940.8
2017-05-01T04:30:40.313Z,940.75
2017-05-01T04:31:53.103Z,940.76
2017-05-01T04:33:05.894Z,940.76
2017-05-01T04:34:18.945Z,940.74
2017-05-01T04:35:31.742Z,940.73
2017-05-01T04:36:44.531Z,940.73
2017-05-01T04:37:56.857Z,940.74
2017-05-01T04:39:09.653Z,940.72
2017-05-01T04:40:22.474Z,940.69
2017-05-01T04:41:35.264Z,940.72
2017-05-01T04:42:48.089Z,940.66
2017-05-01T04:44:00.883Z,940.68
2017-05-01T04:45:13.979Z,940.67
2017-05-01T04:46:26.767Z,940.68
2017-05-01T04:47:39.552Z,940.68
2017-05-01T04:48:51.861Z,940.66
2017-05-01T04:50:04.652Z,940.72
2017-05-01T04:51:16.961Z,940.65
2017-05-01T04:52:29.750Z,940.62
2017-05-01T04:53:42.562Z,940.59
2017-05-01T04:54:55.359Z,940.61
2017-05-01T04:56:08.455Z,940.62
2017-05-01T04:57:20.754Z,940.57
2017-05-01T04:58:33.539Z,940.57
2017-05-01T04:59:46.334Z,940.56
2017-05-01T05:00:59.138Z,940.56
2017-05-01T05:02:11.745Z,940.54
2017-05-01T05:03:24.531Z,940.54
2017-05-01T05:04:36.847Z,940.51
2017-05-01T05:05:49.163Z,940.56
2017-05-01T05:07:02.213Z,940.55
2017-05-01T05:08:15.001Z,940.53
2017-05-01T05:09:27.795Z,940.51
2017-05-01T05:10:40.594Z,940.5
2017-05-01T05:11:53.387Z,940.48
2017-05-01T05:13:06.436Z,940.5
2017-05-01T05:14:19.266Z,940.47
2017-05-01T05:15:32.066Z,940.42
2017-05-01T05:16:44.379Z,940.42
2017-05-01T05:17:57.172Z,940.43
2017-05-01T05:19:09.980Z,940.43
2017-05-01T05:20:22.777Z,940.41
2017-05-01T05:21:35.570Z,940.41
2017-05-01T05:22:48.370Z,940.4
2017-05-01T05:24:01.158Z,940.42
2017-05-01T05:25:13.942Z,940.38
2017-05-01T05:26:26.243Z,940.39
2017-05-01T05:27:38.544Z,940.41
2017-05-01T05:28:51.628Z,940.4
2017-05-01T05:30:04.413Z,940.36
2017-05-01T05:31:16.714Z,940.35
2017-05-01T05:32:29.501Z,940.34
2017-05-01T05:33:42.290Z,940.31
2017-05-01T05:34:55.327Z,940.31
2017-05-01T05:36:08.113Z,940.28
2017-05-01T05:37:20.941Z,940.29
2017-05-01T05:38:33.734Z,940.29
2017-05-01T05:39:46.766Z,940.28
2017-05-01T05:40:59.550Z,940.29
2017-05-01T05:42:12.334Z,940.25
2017-05-01T05:43:25.115Z,940.29
2017-05-01T05:44:37.909Z,940.29
2017-05-01T05:45:50.725Z,940.29
2017-05-01T05:47:03.508Z,940.29
2017-05-01T05:48:15.808Z,940.27
2017-05-01T05:49:28.590Z,940.28
2017-05-01T05:50:41.372Z,940.22
2017-05-01T05:51:54.154Z,940.27
2017-05-01T05:53:06.937Z,940.2
2017-05-01T05:54:19.715Z,940.22
2017-05-01T05:55:32.502Z,940.17
2017-05-01T05:56:44.800Z,940.13
2017-05-01T05:57:57.579Z,940.16
2017-05-01T05:59:10.360Z,940.12
2017-05-01T06:00:23.145Z,940.11
2017-05-01T06:01:36.235Z,940.05
2017-05-01T06:02:49.018Z,940.06
2017-05-01T06:04:01.366Z,940.09
2017-05-01T06:05:14.165Z,940.05
2017-05-01T06:06:26.954Z,940.06
2017-05-01T06:07:39.778Z,940.04
2017-05-01T06:08:52.576Z,940.01
2017-05-01T06:10:05.367Z,939.96
2017-05-01T06:11:18.152Z,939.95
2017-05-01T06:12:31.246Z,939.97
2017-05-01T06:13:44.052Z,939.96
2017-05-01T06:14:56.848Z,939.97
2017-05-01T06:16:09.156Z,939.96
2017-05-01T06:17:21.945Z,939.94
2017-05-01T06:18:34.990Z,940.01
2017-05-01T06:19:47.780Z,939.97
2017-05-01T06:21:00.566Z,939.97
2017-05-01T06:22:13.360Z,939.95
2017-05-01T06:23:25.672Z,939.94
2017-05-01T06:24:38.470Z,939.89
2017-05-01T06:25:51.264Z,939.91
2017-05-01T06:27:03.091Z,939.93
2017-05-01T06:28:15.888Z,939.96
2017-05-01T06:29:28.682Z,939.94
2017-05-01T06:30:41.469Z,939.92
2017-05-01T06:31:54.255Z,939.9
2017-05-01T06:33:07.049Z,939.89
2017-05-01T06:34:19.850Z,939.9
2017-05-01T06:35:32.640Z,939.87
2017-05-01T06:36:45.445Z,939.87
2017-05-01T06:37:58.236Z,939.85
2017-05-01T06:39:11.041Z,939.85
2017-05-01T06:40:24.151Z,939.81
2017-05-01T06:41:36.940Z,939.91
2017-05-01T06:42:49.739Z,939.91
2017-05-01T06:44:02.535Z,939.87
2017-05-01T06:45:15.580Z,939.85
2017-05-01T06:46:28.368Z,939.85
2017-05-01T06:47:41.148Z,939.82
2017-05-01T06:48:53.948Z,939.76
2017-05-01T06:50:06.750Z,939.8
2017-05-01T06:51:19.069Z,939.8
2017-05-01T06:52:31.860Z,939.81
2017-05-01T06:53:44.644Z,939.87
2017-05-01T06:54:56.948Z,939.91
2017-05-01T06:56:09.251Z,939.89
2017-05-01T06:57:22.041Z,939.86
2017-05-01T06:58:34.828Z,939.84
2017-05-01T06:59:47.609Z,939.8
2017-05-01T07:01:00.413Z,939.77
2017-05-01T07:02:13.010Z,939.76
2017-05-01T07:03:25.793Z,939.79
2017-05-01T07:04:38.577Z,939.76
2017-05-01T07:05:51.364Z,939.79
2017-05-01T07:07:04.445Z,939.76
2017-05-01T07:08:17.230Z,939.75
2017-05-01T07:09:30.018Z,939.75
2017-05-01T07:10:42.798Z,939.73
2017-05-01T07:11:55.579Z,939.74
2017-05-01T07:13:08.660Z,939.78
2017-05-01T07:14:21.440Z,939.75
2017-05-01T07:15:34.226Z,939.73
2017-05-01T07:16:47.021Z,939.73
2017-05-01T07:17:59.320Z,939.73
2017-05-01T07:19:11.622Z,939.74
2017-05-01T07:20:24.404Z,939.72
2017-05-01T07:21:37.197Z,939.75
2017-05-01T07:22:49.501Z,939.72
2017-05-01T07:24:02.533Z,939.73
2017-05-01T07:25:15.314Z,939.76
2017-05-01T07:26:28.122Z,939.8
2017-05-01T07:27:40.902Z,939.78
2017-05-01T07:28:53.936Z,939.78
2017-05-01T07:30:06.720Z,939.77
2017-05-01T07:31:19.021Z,939.78
2017-05-01T07:32:31.798Z,939.76
2017-05-01T07:33:44.577Z,939.75
2017-05-01T07:34:57.611Z,939.8
2017-05-01T07:36:09.908Z,939.79
2017-05-01T07:37:22.685Z,939.78
2017-05-01T07:38:35.464Z,939.79
2017-05-01T07:39:48.258Z,939.8
2017-05-01T07:41:01.053Z,939.79
2017-05-01T07:42:13.866Z,939.83
2017-05-01T07:43:26.652Z,939.85
2017-05-01T07:44:39.441Z,939.81
2017-05-01T07:45:52.006Z,939.86
2017-05-01T07:47:04.790Z,939.81
2017-05-01T07:48:17.092Z,939.83
2017-05-01T07:49:29.888Z,939.75
2017-05-01T07:50:42.675Z,939.76
2017-05-01T07:51:55.471Z,939.77
2017-05-01T07:53:08.255Z,939.79
2017-05-01T07:54:20.570Z,939.81
2017-05-01T07:55:33.365Z,939.86
2017-05-01T07:56:46.162Z,939.84
2017-05-01T07:57:58.957Z,939.86
2017-05-01T07:59:11.266Z,939.87
2017-05-01T08:00:24.062Z,939.88
2017-05-01T08:01:37.105Z,939.92
2017-05-01T08:02:49.412Z,939.93
2017-05-01T08:04:01.718Z,939.89
2017-05-01T08:05:14.512Z,939.93
2017-05-01T08:06:27.302Z,939.92
2017-05-01T08:07:40.397Z,939.91
2017-05-01T08:08:52.705Z,939.92
2017-05-01T08:10:05.495Z,939.98
2017-05-01T08:11:18.290Z,939.92
2017-05-01T08:12:31.110Z,939.98
2017-05-01T08:13:43.422Z,939.99
2017-05-01T08:14:56.209Z,939.99
2017-05-01T08:16:09.004Z,939.99
2017-05-01T08:17:21.319Z,940
2017-05-01T08:18:34.102Z,940
2017-05-01T08:19:45.926Z,940.03
2017-05-01T08:20:57.743Z,940.01
2017-05-01T08:22:10.570Z,940.02
2017-05-01T08:23:23.184Z,940.02
2017-05-01T08:24:35.975Z,940.03
2017-05-01T08:25:48.760Z,940
2017-05-01T08:27:01.539Z,940
2017-05-01T08:28:14.326Z,940.02
2017-05-01T08:29:27.361Z,940
2017-05-01T08:30:40.148Z,940.02
2017-05-01T08:31:52.932Z,940.06
2017-05-01T08:33:05.711Z,940.02
2017-05-01T08:34:18.496Z,940.03
2017-05-01T08:35:31.283Z,940.07
2017-05-01T08:36:44.065Z,940.08
2017-05-01T08:37:56.362Z,940.11
2017-05-01T08:39:08.670Z,940.08
2017-05-01T08:40:21.759Z,940.14
2017-05-01T08:41:34.549Z,940.12
2017-05-01T08:42:47.332Z,940.15
2017-05-01T08:44:00.117Z,940.15
2017-05-01T08:45:13.151Z,940.18
2017-05-01T08:46:25.453Z,940.23
2017-05-01T08:47:38.239Z,940.23
2017-05-01T08:48:51.026Z,940.23
2017-05-01T08:50:03.812Z,940.27
2017-05-01T08:51:16.117Z,940.25
2017-05-01T08:52:28.898Z,940.33
2017-05-01T08:53:41.681Z,940.33
2017-05-01T08:54:54.464Z,940.39
2017-05-01T08:56:06.531Z,940.37
2017-05-01T08:57:19.312Z,940.37
2017-05-01T08:58:32.090Z,940.38
2017-05-01T08:59:44.395Z,940.38
2017-05-01T09:00:56.698Z,940.36
2017-05-01T09:02:09.483Z,940.37
2017-05-01T09:03:22.265Z,940.37
2017-05-01T09:04:34.565Z,940.37
2017-05-01T09:05:47.378Z,940.41
2017-05-01T09:07:00.160Z,940.45
2017-05-01T09:08:12.950Z,940.46
2017-05-01T09:09:25.265Z,940.48
2017-05-01T09:10:37.570Z,940.49
2017-05-01T09:11:50.370Z,940.5
2017-05-01T09:13:02.681Z,940.5
2017-05-01T09:14:14.992Z,940.51
2017-05-01T09:15:27.794Z,940.6
2017-05-01T09:16:40.585Z,940.51
2017-05-01T09:17:53.676Z,940.55
2017-05-01T09:19:05.989Z,940.6
2017-05-01T09:20:18.777Z,940.65
2017-05-01T09:21:31.085Z,940.63
2017-05-01T09:22:43.869Z,940.67
2017-05-01T09:23:56.707Z,940.6
2017-05-01T09:25:09.503Z,940.66
2017-05-01T09:26:22.301Z,940.63
2017-05-01T09:27:34.611Z,940.63
2017-05-01T09:28:47.654Z,940.63
2017-05-01T09:30:00.455Z,940.62
2017-05-01T09:31:12.766Z,940.61
2017-05-01T09:32:25.560Z,940.63
2017-05-01T09:33:37.869Z,940.63
2017-05-01T09:34:50.923Z,940.61
2017-05-01T09:36:03.753Z,940.64
2017-05-01T09:37:16.060Z,940.62
2017-05-01T09:38:28.848Z,940.62
2017-05-01T09:39:40.678Z,940.65
2017-05-01T09:40:53.467Z,940.65
2017-05-01T09:42:05.766Z,940.67
2017-05-01T09:43:18.601Z,940.64
2017-05-01T09:44:31.401Z,940.68
2017-05-01T09:45:44.200Z,940.66
2017-05-01T09:46:56.996Z,940.66
2017-05-01T09:48:09.799Z,940.64
2017-05-01T09:49:22.604Z,940.65
2017-05-01T09:50:35.698Z,940.69
2017-05-01T09:51:48.002Z,940.69
2017-05-01T09:52:59.827Z,940.68
2017-05-01T09:54:12.618Z,940.63
2017-05-01T09:55:25.414Z,940.66
2017-05-01T09:56:37.727Z,940.67
2017-05-01T09:57:50.518Z,940.66
2017-05-01T09:59:03.313Z,940.65
2017-05-01T10:00:15.626Z,940.73
2017-05-01T10:01:28.669Z,940.73
2017-05-01T10:02:41.457Z,940.74
2017-05-01T10:03:54.256Z,940.77
2017-05-01T10:05:07.055Z,940.74
2017-05-01T10:06:19.365Z,940.75
2017-05-01T10:07:32.149Z,940.75
2017-05-01T10:08:44.940Z,940.73
2017-05-01T10:09:57.731Z,940.75
2017-05-01T10:11:09.558Z,940.73
2017-05-01T10:12:22.594Z,940.75
2017-05-01T10:13:35.386Z,940.7
2017-05-01T10:14:47.750Z,940.74
2017-05-01T10:16:00.072Z,940.74
2017-05-01T10:17:12.874Z,940.79
2017-05-01T10:18:25.959Z,940.82
2017-05-01T10:19:38.744Z,940.78
2017-05-01T10:20:51.537Z,940.82
2017-05-01T10:22:04.359Z,940.84
2017-05-01T10:23:16.662Z,940.82
2017-05-01T10:24:29.448Z,940.85
2017-05-01T10:25:42.238Z,940.91
2017-05-01T10:26:55.030Z,940.95
2017-05-01T10:28:07.814Z,940.95
2017-05-01T10:29:19.491Z,940.95
2017-05-01T10:30:32.285Z,940.96
2017-05-01T10:31:44.597Z,941.01
2017-05-01T10:32:56.905Z,941.03
2017-05-01T10:34:08.732Z,941
2017-05-01T10:35:21.044Z,941.03
2017-05-01T10:36:33.353Z,941.08
2017-05-01T10:37:46.142Z,941.14
2017-05-01T10:38:58.930Z,941.12
2017-05-01T10:40:11.009Z,941.15
2017-05-01T10:41:23.801Z,941.17
2017-05-01T10:42:36.117Z,941.18
2017-05-01T10:43:48.433Z,941.19
2017-05-01T10:45:01.532Z,941.21
2017-05-01T10:46:13.842Z,941.21
2017-05-01T10:47:26.634Z,941.22
2017-05-01T10:48:39.425Z,941.3
2017-05-01T10:49:51.733Z,941.35
2017-05-01T10:51:04.293Z,941.36
2017-05-01T10:52:17.092Z,941.36
2017-05-01T10:53:29.400Z,941.34
2017-05-01T10:54:42.195Z,941.37
2017-05-01T10:55:55.282Z,941.33
2017-05-01T10:57:07.604Z,941.33
2017-05-01T10:58:19.912Z,941.37
2017-05-01T10:59:31.740Z,941.38
2017-05-01T11:00:44.529Z,941.37
2017-05-01T11:01:56.844Z,941.32
2017-05-01T11:03:09.158Z,941.33
2017-05-01T11:04:20.992Z,941.35
2017-05-01T11:05:33.782Z,941.34
2017-05-01T11:06:46.877Z,941.31
2017-05-01T11:07:59.187Z,941.35
2017-05-01T11:09:11.985Z,941.33
2017-05-01T11:10:24.293Z,941.33
2017-05-01T11:11:36.121Z,941.3
2017-05-01T11:12:49.164Z,941.29
2017-05-01T11:14:01.963Z,941.33
2017-05-01T11:15:14.274Z,941.36
2017-05-01T11:16:27.066Z,941.32
2017-05-01T11:17:39.629Z,941.35
2017-05-01T11:18:52.424Z,941.35
2017-05-01T11:20:05.208Z,941.37
2017-05-01T11:21:17.038Z,941.36
2017-05-01T11:22:29.835Z,941.36
2017-05-01T11:23:42.140Z,941.39
2017-05-01T11:24:54.932Z,941.38
2017-05-01T11:26:07.725Z,941.43
2017-05-01T11:27:20.517Z,941.4
2017-05-01T11:28:32.827Z,941.45
2017-05-01T11:29:45.611Z,941.44
2017-05-01T11:30:57.920Z,941.47
2017-05-01T11:32:10.715Z,941.5
2017-05-01T11:33:23.509Z,941.51
2017-05-01T11:34:36.555Z,941.52
2017-05-01T11:35:49.344Z,941.56
2017-05-01T11:37:02.127Z,941.56
2017-05-01T11:38:13.957Z,941.61
2017-05-01T11:39:26.753Z,941.54
2017-05-01T11:40:39.539Z,941.6
2017-05-01T11:41:51.855Z,941.61
2017-05-01T11:43:03.683Z,941.68
2017-05-01T11:44:16.475Z,941.64
2017-05-01T11:45:28.783Z,941.69
2017-05-01T11:46:41.124Z,941.68
2017-05-01T11:47:53.430Z,941.66
2017-05-01T11:49:06.227Z,941.68
2017-05-01T11:50:19.322Z,941.7
2017-05-01T11:51:32.109Z,941.68
2017-05-01T11:52:44.898Z,941.7
2017-05-01T11:53:57.695Z,941.68
2017-05-01T11:55:10.006Z,941.68
2017-05-01T11:56:22.554Z,941.67
2017-05-01T11:57:35.333Z,941.68
2017-05-01T11:58:48.171Z,941.71
2017-05-01T12:00:00.972Z,941.67
2017-05-01T12:01:13.277Z,941.71
2017-05-01T12:02:26.071Z,941.68
2017-05-01T12:03:38.869Z,941.64
2017-05-01T12:04:51.187Z,941.7
2017-05-01T12:06:03.986Z,941.67
2017-05-01T12:07:16.774Z,941.66
2017-05-01T12:08:29.572Z,941.66
2017-05-01T12:09:42.368Z,941.66
2017-05-01T12:10:55.168Z,941.63
2017-05-01T12:12:07.958Z,941.63
2017-05-01T12:13:20.785Z,941.6
2017-05-01T12:14:33.102Z,941.59
2017-05-01T12:15:45.897Z,941.6
2017-05-01T12:16:58.691Z,941.62
2017-05-01T12:18:10.528Z,941.59
2017-05-01T12:19:23.331Z,941.54
2017-05-01T12:20:36.155Z,941.55
2017-05-01T12:21:48.948Z,941.54
2017-05-01T12:23:01.250Z,941.56
2017-05-01T12:24:14.052Z,941.55
2017-05-01T12:25:26.849Z,941.52
2017-05-01T12:26:39.152Z,941.57
2017-05-01T12:27:51.943Z,941.56
2017-05-01T12:29:04.981Z,941.54
2017-05-01T12:30:17.300Z,941.58
2017-05-01T12:31:30.095Z,941.58
2017-05-01T12:32:42.880Z,941.59
2017-05-01T12:33:55.723Z,941.61
2017-05-01T12:35:08.040Z,941.61
2017-05-01T12:36:20.353Z,941.6
2017-05-01T12:37:33.143Z,941.59
2017-05-01T12:38:45.940Z,941.61
2017-05-01T12:39:58.737Z,941.61
2017-05-01T12:41:11.534Z,941.6
2017-05-01T12:42:23.847Z,941.62
2017-05-01T12:43:36.638Z,941.58
2017-05-01T12:44:49.684Z,941.57
2017-05-01T12:46:02.488Z,941.57
2017-05-01T12:47:14.800Z,941.56
2017-05-01T12:48:27.593Z,941.54
2017-05-01T12:49:40.395Z,941.55
2017-05-01T12:50:53.195Z,941.55
2017-05-01T12:52:06.002Z,941.57
2017-05-01T12:53:18.324Z,941.6
2017-05-01T12:54:31.121Z,941.61
2017-05-01T12:55:43.743Z,941.57
2017-05-01T12:56:56.535Z,941.55
2017-05-01T12:58:08.845Z,941.54
2017-05-01T12:59:21.160Z,941.53
2017-05-01T13:00:33.473Z,941.57
2017-05-01T13:01:46.273Z,941.51
2017-05-01T13:02:59.079Z,941.52
2017-05-01T13:04:11.428Z,941.57
2017-05-01T13:05:24.225Z,941.53
2017-05-01T13:06:36.838Z,941.53
2017-05-01T13:07:49.151Z,941.54
2017-05-01T13:09:01.963Z,941.47
2017-05-01T13:10:13.802Z,941.43
2017-05-01T13:11:26.110Z,941.41
2017-05-01T13:12:39.164Z,941.38
2017-05-01T13:13:51.969Z,941.35
2017-05-01T13:15:04.777Z,941.36
2017-05-01T13:16:17.088Z,941.22
2017-05-01T13:17:30.134Z,941.25
2017-05-01T13:18:42.936Z,941.3
2017-05-01T13:19:55.741Z,941.28
2017-05-01T13:21:08.052Z,941.32
2017-05-01T13:22:20.362Z,941.29
2017-05-01T13:23:33.156Z,941.3
2017-05-01T13:24:45.482Z,941.26
2017-05-01T13:25:58.287Z,941.24
2017-05-01T13:27:10.598Z,941.2
2017-05-01T13:28:23.427Z,941.2
2017-05-01T13:29:36.238Z,941.14
2017-05-01T13:30:49.045Z,941.13
2017-05-01T13:32:01.368Z,941.11
2017-05-01T13:33:13.688Z,941.11
2017-05-01T13:34:26.497Z,941.04
2017-05-01T13:35:39.303Z,941.09
2017-05-01T13:36:52.113Z,941.02
2017-05-01T13:38:04.918Z,941.03
2017-05-01T13:39:17.728Z,941.06
2017-05-01T13:40:30.059Z,941.05
2017-05-01T13:41:42.859Z,941.03
2017-05-01T13:42:55.659Z,941.05
2017-05-01T13:44:08.480Z,941.04
2017-05-01T13:45:21.306Z,941.03
2017-05-01T13:46:34.108Z,941.04
2017-05-01T13:47:46.910Z,941.01
2017-05-01T13:48:59.725Z,941.04
2017-05-01T13:50:12.043Z,941.02
2017-05-01T13:51:24.836Z,940.98
2017-05-01T13:52:37.629Z,940.98
2017-05-01T13:53:50.424Z,940.93
2017-05-01T13:55:02.263Z,940.99
2017-05-01T13:56:14.349Z,940.95
2017-05-01T13:57:27.137Z,940.98
2017-05-01T13:58:39.923Z,940.97
2017-05-01T13:59:52.712Z,940.93
2017-05-01T14:01:05.022Z,940.98
2017-05-01T14:02:16.872Z,940.97
2017-05-01T14:03:29.198Z,940.87
2017-05-01T14:04:41.997Z,940.9
2017-05-01T14:05:54.787Z,940.88
2017-05-01T14:07:07.824Z,940.88
2017-05-01T14:08:20.130Z,940.87
2017-05-01T14:09:32.927Z,940.86
2017-05-01T14:10:44.751Z,940.89
2017-05-01T14:11:57.538Z,940.83
2017-05-01T14:13:09.844Z,940.8
2017-05-01T14:14:22.635Z,940.78
2017-05-01T14:15:34.938Z,940.7
2017-05-01T14:16:47.727Z,940.72
2017-05-01T14:18:00.775Z,940.69
2017-05-01T14:19:13.565Z,940.67
2017-05-01T14:20:26.361Z,940.69
2017-05-01T14:21:38.672Z,940.66
2017-05-01T14:22:51.719Z,940.64
2017-05-01T14:24:04.028Z,940.62
2017-05-01T14:25:15.866Z,940.63
2017-05-01T14:26:28.665Z,940.7
2017-05-01T14:27:40.979Z,940.65
2017-05-01T14:28:54.028Z,940.63
2017-05-01T14:30:06.832Z,940.59
2017-05-01T14:31:19.152Z,940.61
2017-05-01T14:32:31.955Z,940.58
2017-05-01T14:33:44.756Z,940.58
2017-05-01T14:34:57.078Z,940.54
2017-05-01T14:36:09.414Z,940.51
2017-05-01T14:37:21.732Z,940.46
2017-05-01T14:38:34.537Z,940.46
2017-05-01T14:40:01.412Z,940.43
2017-05-01T14:41:13.247Z,940.45
2017-05-01T14:42:26.057Z,940.46
2017-05-01T14:43:38.379Z,940.4
2017-05-01T14:44:51.189Z,940.43
2017-05-01T14:46:04.000Z,940.37
2017-05-01T14:47:16.805Z,940.41
2017-05-01T14:48:29.611Z,940.41
2017-05-01T14:49:42.670Z,940.4
2017-05-01T14:50:55.469Z,940.41
2017-05-01T14:52:08.284Z,940.42
2017-05-01T14:53:20.606Z,940.39
2017-05-01T14:54:33.408Z,940.4
2017-05-01T14:55:46.210Z,940.36
2017-05-01T14:56:58.531Z,940.36
2017-05-01T14:58:10.854Z,940.33
2017-05-01T14:59:23.654Z,940.33
2017-05-01T15:00:36.757Z,940.29
2017-05-01T15:01:49.567Z,940.23
2017-05-01T15:03:02.374Z,940.23
2017-05-01T15:04:14.683Z,940.19
2017-05-01T15:05:27.467Z,940.15
2017-05-01T15:06:40.589Z,940.17
2017-05-01T15:07:53.383Z,940.1
2017-05-01T15:09:06.180Z,940.12
2017-05-01T15:10:18.505Z,940.07
2017-05-01T15:11:31.560Z,940.04
2017-05-01T15:12:44.361Z,940.05